Time;durP1;ratioP1;P1;durP2;ratioP2;P2;SDS_P1;SDS_P2;PMS_P1;PMS_P2;Temp;Humidity;BMP_temperature;BMP_pressure;BME280_temperature;BME280_humidity;BME280_pressure;Samples;Min_cycle;Max_cycle;Signal;HPM_P1;HPM_P2
2023/03/16 06:19:14;;;;;;;;;2.75;1.50;;;;;-142.59;100.00;56100.38;5392165;23;50157;-63
2023/03/16 06:21:40;;;;;;;;;2.00;2.00;;;;;-142.59;100.00;56100.38;4953018;28;49946;-63
2023/03/16 06:24:07;;;;;;;;;3.50;1.75;;;;;-142.59;100.00;56100.38;4966019;28;49874;-63
2023/03/16 06:26:33;;;;;;;;;4.75;3.50;;;;;-142.59;100.00;56100.38;4954406;28;50217;-67
2023/03/16 06:28:59;;;;;;;;;4.50;3.00;;;;;-142.59;100.00;56100.38;4936739;28;50598;-71
2023/03/16 06:31:24;;;;;;;;;2.25;1.00;;;;;-142.59;100.00;56100.38;4954043;28;50105;-66
2023/03/16 06:33:50;;;;;;;;;2.50;2.50;;;;;-142.59;100.00;56100.38;4954152;28;50264;-71
2023/03/16 06:36:15;;;;;;;;;2.00;2.00;;;;;-142.59;100.00;56100.38;4954732;28;49997;-69
2023/03/16 06:38:41;;;;;;;;;2.50;2.50;;;;;-142.59;100.00;56100.38;4954476;28;50679;-66
2023/03/16 06:41:06;;;;;;;;;2.00;2.00;;;;;-142.59;100.00;56100.38;4954554;28;49754;-73
2023/03/16 06:43:32;;;;;;;;;2.00;2.00;;;;;-142.59;100.00;56100.38;4954419;28;49694;-67
2023/03/16 06:45:57;;;;;;;;;2.75;2.25;;;;;-142.59;100.00;56100.38;4954618;28;49859;-73
2023/03/16 06:48:23;;;;;;;;;5.00;2.00;;;;;-142.59;100.00;56100.38;4957642;28;50709;-76
2023/03/16 06:50:48;;;;;;;;;2.00;2.00;;;;;-142.59;100.00;56100.38;4953021;28;50172;-68
2023/03/16 06:53:14;;;;;;;;;2.50;2.50;;;;;-142.59;100.00;56100.38;4933542;28;49933;-69
2023/03/16 06:55:40;;;;;;;;;5.00;3.00;;;;;-142.59;100.00;56100.38;4951558;28;50024;-76
2023/03/16 06:58:06;;;;;;;;;2.50;2.50;;;;;-142.59;100.00;56100.38;4951211;28;50357;-69
2023/03/16 07:00:32;;;;;;;;;3.00;2.50;;;;;-142.59;100.00;56100.38;4956401;28;49809;-70
2023/03/16 07:02:58;;;;;;;;;4.75;4.75;;;;;-142.59;100.00;56100.38;4954451;28;49879;-69
2023/03/16 07:05:24;;;;;;;;;1.75;1.75;;;;;-142.59;100.00;56100.38;4952658;28;50098;-74
2023/03/16 07:07:49;;;;;;;;;6.50;2.25;;;;;-142.59;100.00;56100.38;4932866;28;51734;-73
2023/03/16 07:10:16;;;;;;;;;6.25;4.00;;;;;-142.59;100.00;56100.38;4954555;28;50002;-69
2023/03/16 07:12:42;;;;;;;;;2.00;2.00;;;;;-142.59;100.00;56100.38;4954975;28;49683;-70
2023/03/16 07:15:11;;;;;;;;;2.00;2.00;;;;;-142.59;100.00;56100.38;4954374;28;49660;-70
2023/03/16 07:17:37;;;;;;;;;5.50;3.00;;;;;-142.59;100.00;56100.38;4956352;28;51014;-67
2023/03/16 07:20:04;;;;;;;;;3.50;2.00;;;;;-142.59;100.00;56100.38;4952920;28;49795;-67
2023/03/16 07:22:31;;;;;;;;;5.00;5.00;;;;;-142.59;100.00;56100.38;4953451;28;49827;-69
2023/03/16 07:24:57;;;;;;;;;2.00;2.00;;;;;-142.59;100.00;56100.38;4956046;28;49892;-72
2023/03/16 07:27:24;;;;;;;;;1.00;1.00;;;;;-142.59;100.00;56100.38;4952806;28;50817;-66
2023/03/16 07:29:51;;;;;;;;;3.75;2.25;;;;;-142.59;100.00;56100.38;4954290;28;50071;-69
2023/03/16 07:32:17;;;;;;;;;2.75;0.00;;;;;-142.59;100.00;56100.38;4954688;28;49941;-78
2023/03/16 07:34:42;;;;;;;;;1.50;1.50;;;;;-142.59;100.00;56100.38;4952833;28;49803;-72
2023/03/16 07:37:08;;;;;;;;;1.00;1.00;;;;;-142.59;100.00;56100.38;4939265;28;50352;-73
2023/03/16 07:39:35;;;;;;;;;3.50;3.00;;;;;-142.59;100.00;56100.38;4942058;28;49965;-67
2023/03/16 07:42:00;;;;;;;;;5.50;3.00;;;;;-142.59;100.00;56100.38;4943857;28;49838;-80
2023/03/16 07:44:26;;;;;;;;;1.00;1.00;;;;;-142.59;100.00;56100.38;4927738;28;50160;-74
2023/03/16 07:46:51;;;;;;;;;6.75;5.75;;;;;-142.59;100.00;56100.38;4944167;28;50060;-69
2023/03/16 07:49:17;;;;;;;;;3.50;3.00;;;;;-142.59;100.00;56100.38;4959139;28;49844;-70
2023/03/16 07:51:42;;;;;;;;;3.00;2.00;;;;;-142.59;100.00;56100.38;4951637;28;49993;-72
2023/03/16 07:54:07;;;;;;;;;3.00;3.00;;;;;-142.59;100.00;56100.38;4952515;28;49695;-69
2023/03/16 07:56:33;;;;;;;;;1.50;1.50;;;;;-142.59;100.00;56100.38;4962309;28;49920;-71
2023/03/16 07:58:58;;;;;;;;;3.75;1.00;;;;;-142.59;100.00;56100.38;4951802;28;49769;-76
2023/03/16 08:01:23;;;;;;;;;1.75;1.00;;;;;-142.59;100.00;56100.38;4954276;28;50057;-72
2023/03/16 08:03:49;;;;;;;;;3.00;3.00;;;;;-142.59;100.00;56100.38;4952452;28;49736;-74
2023/03/16 08:06:14;;;;;;;;;1.50;1.50;;;;;-142.59;100.00;56100.38;4952889;28;51191;-69
2023/03/16 08:08:39;;;;;;;;;2.50;1.75;;;;;-142.59;100.00;56100.38;4953012;28;49806;-76
2023/03/16 08:11:05;;;;;;;;;2.00;2.00;;;;;-142.59;100.00;56100.38;4954168;28;49935;-75
2023/03/16 08:13:30;;;;;;;;;2.00;1.50;;;;;-142.59;100.00;56100.38;4952720;28;49941;-69
2023/03/16 08:16:00;;;;;;;;;1.00;1.00;;;;;-142.59;100.00;56100.38;4956276;28;50507;-72
2023/03/16 08:18:27;;;;;;;;;2.00;2.00;;;;;-142.59;100.00;56100.38;4969563;28;49241;-70
2023/03/16 08:20:52;;;;;;;;;4.50;3.00;;;;;-142.59;100.00;56100.38;4970466;28;49327;-75
2023/03/16 08:23:18;;;;;;;;;2.00;2.00;;;;;-142.59;100.00;56100.38;4954486;28;49714;-74
2023/03/16 08:25:43;;;;;;;;;2.50;2.50;;;;;-142.59;100.00;56100.38;4961033;28;50945;-70
2023/03/16 08:28:09;;;;;;;;;1.00;1.00;;;;;-142.59;100.00;56100.38;4957945;28;51959;-72
2023/03/16 08:30:35;;;;;;;;;3.00;3.00;;;;;-142.59;100.00;56100.38;4952566;28;49789;-68
2023/03/16 08:33:02;;;;;;;;;2.00;2.00;;;;;-142.59;100.00;56100.38;4960270;28;49894;-69
2023/03/16 08:35:28;;;;;;;;;2.00;2.00;;;;;-142.59;100.00;56100.38;4957384;28;51408;-73
2023/03/16 08:37:54;;;;;;;;;1.75;1.75;;;;;-142.59;100.00;56100.38;4967452;28;49869;-73
2023/03/16 08:40:21;;;;;;;;;3.00;3.00;;;;;-142.59;100.00;56100.38;4952694;28;49899;-73
2023/03/16 08:42:49;;;;;;;;;2.00;2.00;;;;;-142.59;100.00;56100.38;4951594;28;49827;-74
2023/03/16 08:45:16;;;;;;;;;3.00;3.00;;;;;-142.59;100.00;56100.38;4951818;28;49845;-74
2023/03/16 08:47:42;;;;;;;;;4.00;1.50;;;;;-142.59;100.00;56100.38;4952131;28;50004;-75
2023/03/16 08:50:12;;;;;;;;;2.00;2.00;;;;;-142.59;100.00;56100.38;4934981;28;49788;-73
2023/03/16 08:52:37;;;;;;;;;2.00;2.00;;;;;-142.59;100.00;56100.38;4952731;28;49878;-69
2023/03/16 08:55:04;;;;;;;;;2.00;2.00;;;;;-142.59;100.00;56100.38;4952315;28;50422;-68
2023/03/16 08:57:32;;;;;;;;;1.50;1.50;;;;;-142.59;100.00;56100.38;4952297;28;49861;-68
2023/03/16 08:59:57;;;;;;;;;3.75;2.50;;;;;-142.59;100.00;56100.38;4952483;28;49980;-71
2023/03/16 09:02:23;;;;;;;;;2.00;2.00;;;;;-142.59;100.00;56100.38;4952337;28;49726;-69
2023/03/16 09:04:49;;;;;;;;;3.75;2.00;;;;;-142.59;100.00;56100.38;4951597;28;50859;-69
2023/03/16 09:07:14;;;;;;;;;3.75;2.00;;;;;-142.59;100.00;56100.38;4951983;28;49892;-73
2023/03/16 09:09:40;;;;;;;;;3.75;3.00;;;;;-142.59;100.00;56100.38;4951756;28;49861;-69
2023/03/16 09:12:05;;;;;;;;;3.00;3.00;;;;;-142.59;100.00;56100.38;4958235;28;49814;-67
2023/03/16 09:14:31;;;;;;;;;3.50;3.25;;;;;-142.59;100.00;56100.38;4951628;28;50782;-73
2023/03/16 09:16:57;;;;;;;;;3.00;3.00;;;;;-142.59;100.00;56100.38;4956590;28;50229;-68
2023/03/16 09:19:23;;;;;;;;;3.00;3.00;;;;;-142.59;100.00;56100.38;4969975;28;49937;-72
2023/03/16 09:21:49;;;;;;;;;1.50;1.50;;;;;-142.59;100.00;56100.38;4970629;28;49821;-73
2023/03/16 09:24:14;;;;;;;;;3.50;3.50;;;;;-142.59;100.00;56100.38;4970426;28;51058;-74
2023/03/16 09:26:39;;;;;;;;;6.25;3.50;;;;;-142.59;100.00;56100.38;4957600;28;49623;-72
2023/03/16 09:29:05;;;;;;;;;5.00;3.00;;;;;-142.59;100.00;56100.38;4933829;28;53538;-70
2023/03/16 09:31:32;;;;;;;;;3.75;3.75;;;;;-142.59;100.00;56100.38;4951805;28;50063;-73
2023/03/16 09:33:57;;;;;;;;;4.25;3.75;;;;;-142.59;100.00;56100.38;4970194;28;50040;-68
2023/03/16 09:36:23;;;;;;;;;2.75;2.75;;;;;-142.59;100.00;56100.38;4970166;28;49769;-68
2023/03/16 09:38:49;;;;;;;;;4.00;3.00;;;;;-142.59;100.00;56100.38;4970180;28;50135;-71
2023/03/16 09:41:33;;;;;;;;;6.25;3.25;;;;;-142.59;100.00;56100.38;4970510;28;50023;-70
2023/03/16 09:44:08;;;;;;;;;4.00;2.00;;;;;-142.59;100.00;56100.38;4952351;28;49920;-69
2023/03/16 09:46:41;;;;;;;;;2.00;2.00;;;;;-142.59;100.00;56100.38;4970350;28;50078;-71
2023/03/16 09:49:09;;;;;;;;;4.00;3.50;;;;;-142.59;100.00;56100.38;4969642;28;50040;-67
2023/03/16 09:51:51;;;;;;;;;2.00;2.00;;;;;-142.59;100.00;56100.38;4967727;28;49720;-74
2023/03/16 09:54:38;;;;;;;;;4.25;4.25;;;;;-142.59;100.00;56100.38;4970022;28;50959;-69
2023/03/16 09:57:04;;;;;;;;;67.25;54.00;;;;;-142.59;100.00;56100.38;4973335;28;49816;-70
2023/03/16 09:59:30;;;;;;;;;6.25;6.25;;;;;-142.59;100.00;56100.38;4973750;28;49755;-68
2023/03/16 10:02:18;;;;;;;;;2.50;2.50;;;;;-142.59;100.00;56100.38;4973914;28;49787;-68
2023/03/16 10:05:10;;;;;;;;;41.00;37.50;;;;;-142.59;100.00;56100.38;4972928;28;49843;-73
2023/03/16 10:08:00;;;;;;;;;13.25;12.25;;;;;-142.59;100.00;56100.38;4973487;28;49817;-72
2023/03/16 10:10:46;;;;;;;;;36.50;34.50;;;;;-142.59;100.00;56100.38;4973418;28;49800;-67
2023/03/16 10:13:24;;;;;;;;;9.75;4.50;;;;;-142.59;100.00;56100.38;4973504;28;49961;-67
2023/03/16 10:15:53;;;;;;;;;11.00;9.75;;;;;-142.59;100.00;56100.38;4967651;28;50843;-71
2023/03/16 10:18:27;;;;;;;;;13.25;13.25;;;;;-142.59;100.00;56100.38;4972637;28;49719;-67
2023/03/16 10:20:54;;;;;;;;;7.75;7.75;;;;;-142.59;100.00;56100.38;4973451;28;49839;-70
2023/03/16 10:23:23;;;;;;;;;100.33;93.67;;;;;-142.59;100.00;56100.38;4948336;28;49865;-75
2023/03/16 10:25:55;;;;;;;;;86.00;76.00;;;;;-142.59;100.00;56100.38;4947905;28;51072;-67
2023/03/16 10:28:25;;;;;;;;;15.75;13.00;;;;;-142.59;100.00;56100.38;4948945;28;49750;-72
2023/03/16 10:30:53;;;;;;;;;19.75;18.00;;;;;-142.59;100.00;56100.38;4954739;28;49919;-67
2023/03/16 10:33:25;;;;;;;;;4.25;3.25;;;;;-142.59;100.00;56100.38;4972866;28;49667;-70
2023/03/16 10:35:56;;;;;;;;;28.25;26.00;;;;;-142.59;100.00;56100.38;4968411;28;50263;-72
2023/03/16 10:38:41;;;;;;;;;16.00;13.00;;;;;-142.59;100.00;56100.38;4968491;28;50505;-74
2023/03/16 10:41:19;;;;;;;;;56.00;43.25;;;;;-142.59;100.00;56100.38;4972764;28;49641;-73
2023/03/16 10:43:48;;;;;;;;;110.67;93.33;;;;;-142.59;100.00;56100.38;4973175;28;50043;-72
2023/03/16 10:46:13;;;;;;;;;75.25;59.00;;;;;-142.59;100.00;56100.38;4968617;28;51066;-68
2023/03/16 10:48:39;;;;;;;;;69.25;53.00;;;;;-142.59;100.00;56100.38;4954603;28;49658;-74
2023/03/16 10:51:13;;;;;;;;;58.75;43.50;;;;;-142.59;100.00;56100.38;4972681;28;49745;-74
2023/03/16 10:53:43;;;;;;;;;75.67;59.67;;;;;-142.59;100.00;56100.38;4967506;28;49991;-68
2023/03/16 10:56:12;;;;;;;;;25.25;24.25;;;;;-142.59;100.00;56100.38;4972005;28;52279;-75
2023/03/16 10:58:42;;;;;;;;;61.00;48.25;;;;;-142.59;100.00;56100.38;4970051;28;49751;-69
2023/03/16 11:01:30;;;;;;;;;65.75;46.75;;;;;-142.59;100.00;56100.38;4965854;28;49810;-69
2023/03/16 11:03:57;;;;;;;;;3.00;2.25;;;;;-142.59;100.00;56100.38;4937527;28;49815;-68
2023/03/16 11:06:29;;;;;;;;;3.25;3.25;;;;;-142.59;100.00;56100.38;4967825;28;50031;-69
2023/03/16 11:09:08;;;;;;;;;4.00;2.75;;;;;-142.59;100.00;56100.38;4968817;28;49841;-68
2023/03/16 11:11:34;;;;;;;;;3.50;3.50;;;;;-142.59;100.00;56100.38;4964506;28;50176;-73
2023/03/16 11:14:03;;;;;;;;;4.00;2.50;;;;;-142.59;100.00;56100.38;4970250;28;49739;-74
2023/03/16 11:16:44;;;;;;;;;3.00;3.00;;;;;-142.59;100.00;56100.38;4963385;28;49816;-70
2023/03/16 11:19:30;;;;;;;;;2.00;2.00;;;;;-142.59;100.00;56100.38;4971292;28;49785;-72
2023/03/16 11:22:16;;;;;;;;;2.50;2.50;;;;;-142.59;100.00;56100.38;4972349;28;49914;-67
2023/03/16 11:25:11;;;;;;;;;58.00;46.25;;;;;-142.59;100.00;56100.38;4969637;28;49802;-69
2023/03/16 11:28:18;;;;;;;;;4.75;3.50;;;;;-142.59;100.00;56100.38;4967417;28;51088;-65
2023/03/16 11:31:01;;;;;;;;;3.50;3.00;;;;;-142.59;100.00;56100.38;4925748;28;49875;-69
2023/03/16 11:33:29;;;;;;;;;2.00;1.00;;;;;-142.59;100.00;56100.38;4970425;28;49780;-66
2023/03/16 11:36:20;;;;;;;;;1.00;0.25;;;;;-142.59;100.00;56100.38;4967651;28;49830;-72
2023/03/16 11:38:51;;;;;;;;;5.25;4.00;;;;;-142.59;100.00;56100.38;4952620;28;49590;-69
2023/03/16 11:41:31;;;;;;;;;3.00;3.00;;;;;-142.59;100.00;56100.38;4960395;28;49800;-68
2023/03/16 11:44:16;;;;;;;;;4.00;4.00;;;;;-142.59;100.00;56100.38;4960236;28;49731;-71
2023/03/16 11:46:57;;;;;;;;;2.25;2.25;;;;;-142.59;100.00;56100.38;4954417;28;49951;-74
2023/03/16 11:50:15;;;;;;;;;6.00;3.00;;;;;-142.59;100.00;56100.38;4952258;28;50052;-69
2023/03/16 11:53:03;;;;;;;;;3.75;3.00;;;;;-142.59;100.00;56100.38;4914927;28;49755;-66
2023/03/16 11:55:49;;;;;;;;;3.50;3.50;;;;;-142.59;100.00;56100.38;4954159;28;49886;-67
2023/03/16 11:58:49;;;;;;;;;4.75;3.50;;;;;-142.59;100.00;56100.38;4949857;28;49732;-68
2023/03/16 12:01:30;;;;;;;;;2.25;1.00;;;;;-142.59;100.00;56100.38;4952047;28;50273;-69
2023/03/16 12:04:32;;;;;;;;;3.50;3.50;;;;;-142.59;100.00;56100.38;4952182;28;49789;-78
2023/03/16 12:07:19;;;;;;;;;3.00;3.00;;;;;-142.59;100.00;56100.38;4952539;28;50038;-69
2023/03/16 12:10:05;;;;;;;;;2.00;2.00;;;;;-142.59;100.00;56100.38;4957952;28;49762;-70
2023/03/16 12:12:46;;;;;;;;;4.00;4.00;;;;;-142.59;100.00;56100.38;4983634;28;49616;-72
2023/03/16 12:15:34;;;;;;;;;2.00;2.00;;;;;-142.59;100.00;56100.38;4965754;28;49817;-68
2023/03/16 12:18:15;;;;;;;;;2.00;2.00;;;;;-142.59;100.00;56100.38;4948037;28;49699;-69
2023/03/16 12:20:55;;;;;;;;;2.00;2.00;;;;;-142.59;100.00;56100.38;4952657;28;50220;-71
2023/03/16 12:23:31;;;;;;;;;2.00;2.00;;;;;-142.59;100.00;56100.38;4961065;28;49884;-75
2023/03/16 12:25:58;;;;;;;;;2.00;2.00;;;;;-142.59;100.00;56100.38;4958103;28;49948;-77
2023/03/16 12:28:26;;;;;;;;;4.00;2.25;;;;;-142.59;100.00;56100.38;4965617;28;49760;-67
2023/03/16 12:31:14;;;;;;;;;1.50;1.50;;;;;-142.59;100.00;56100.38;4971694;28;49826;-68
2023/03/16 12:33:55;;;;;;;;;3.00;1.25;;;;;-142.59;100.00;56100.38;4956837;28;49994;-80
2023/03/16 12:36:38;;;;;;;;;1.00;1.00;;;;;-142.59;100.00;56100.38;4954376;28;49957;-73
2023/03/16 12:39:06;;;;;;;;;1.00;1.00;;;;;-142.59;100.00;56100.38;4955576;28;49765;-74
2023/03/16 12:41:50;;;;;;;;;1.25;1.00;;;;;-142.59;100.00;56100.38;4948240;28;50054;-72
2023/03/16 12:44:31;;;;;;;;;1.00;1.00;;;;;-142.59;100.00;56100.38;4970458;28;50722;-73
2023/03/16 12:47:27;;;;;;;;;1.75;1.75;;;;;-142.59;100.00;56100.38;4971146;28;49849;-78
2023/03/16 12:49:53;;;;;;;;;1.00;1.00;;;;;-142.59;100.00;56100.38;4970440;28;49780;-74
2023/03/16 12:52:19;;;;;;;;;2.75;2.75;;;;;-142.59;100.00;56100.38;4969400;28;49956;-79
2023/03/16 12:55:11;;;;;;;;;2.25;2.25;;;;;-142.59;100.00;56100.38;4961910;28;50085;-80
2023/03/16 12:57:39;;;;;;;;;2.00;2.00;;;;;-142.59;100.00;56100.38;4937498;28;49843;-79
2023/03/16 13:00:08;;;;;;;;;2.25;2.00;;;;;-142.59;100.00;56100.38;4953199;28;49768;-78
2023/03/16 13:02:36;;;;;;;;;1.75;1.75;;;;;-142.59;100.00;56100.38;4970635;28;50107;-77
2023/03/16 13:05:08;;;;;;;;;2.25;1.75;;;;;-142.59;100.00;56100.38;4970493;28;50750;-77
2023/03/16 13:07:34;;;;;;;;;3.75;3.25;;;;;-142.59;100.00;56100.38;4970726;28;49973;-82
2023/03/16 13:10:08;;;;;;;;;2.50;2.50;;;;;-142.59;100.00;56100.38;4954222;28;49894;-78
2023/03/16 13:12:37;;;;;;;;;2.00;2.00;;;;;-142.59;100.00;56100.38;4969960;28;49909;-78
2023/03/16 13:15:21;;;;;;;;;1.25;1.25;;;;;-142.59;100.00;56100.38;4970191;28;50952;-76
2023/03/16 13:17:49;;;;;;;;;1.00;1.00;;;;;-142.59;100.00;56100.38;4945853;28;49705;-72
2023/03/16 13:20:30;;;;;;;;;3.00;3.00;;;;;-142.59;100.00;56100.38;4958029;28;50044;-74
2023/03/16 13:23:23;;;;;;;;;1.50;1.00;;;;;-142.59;100.00;56100.38;4965135;28;49829;-79
2023/03/16 13:26:02;;;;;;;;;2.00;2.00;;;;;-142.59;100.00;56100.38;4970470;28;49796;-76
2023/03/16 13:28:31;;;;;;;;;2.00;2.00;;;;;-142.59;100.00;56100.38;4970440;28;49718;-73
2023/03/16 13:31:01;;;;;;;;;1.00;1.00;;;;;-142.59;100.00;56100.38;4970546;28;49986;-77
2023/03/16 13:33:30;;;;;;;;;3.00;3.00;;;;;-142.59;100.00;56100.38;4970009;28;49895;-78
2023/03/16 13:35:57;;;;;;;;;1.00;1.00;;;;;-142.59;100.00;56100.38;4969984;28;49900;-72
2023/03/16 13:38:26;;;;;;;;;1.00;1.00;;;;;-142.59;100.00;56100.38;4970341;28;50099;-75
2023/03/16 13:40:55;;;;;;;;;1.00;0.75;;;;;-142.59;100.00;56100.38;4970563;28;49739;-78
2023/03/16 13:43:23;;;;;;;;;1.25;1.25;;;;;-142.59;100.00;56100.38;4970397;28;49948;-75
2023/03/16 13:45:49;;;;;;;;;0.50;0.50;;;;;-142.59;100.00;56100.38;4964547;28;50004;-80
2023/03/16 13:48:16;;;;;;;;;1.75;1.75;;;;;-142.59;100.00;56100.38;4965806;28;49873;-73
2023/03/16 13:50:43;;;;;;;;;1.50;1.50;;;;;-142.59;100.00;56100.38;4969488;28;50004;-74
2023/03/16 13:53:21;;;;;;;;;1.00;1.00;;;;;-142.59;100.00;56100.38;4957220;28;49941;-75
2023/03/16 13:55:47;;;;;;;;;3.50;2.75;;;;;-142.59;100.00;56100.38;4965987;28;50610;-73
2023/03/16 13:58:30;;;;;;;;;2.50;2.50;;;;;-142.59;100.00;56100.38;4970122;28;49751;-75
2023/03/16 14:00:57;;;;;;;;;1.00;1.00;;;;;-142.59;100.00;56100.38;4969898;28;49941;-74
2023/03/16 14:03:29;;;;;;;;;1.00;0.25;;;;;-142.59;100.00;56100.38;4969873;28;49700;-72
2023/03/16 14:05:56;;;;;;;;;1.00;1.00;;;;;-142.59;100.00;56100.38;4965334;28;49837;-75
2023/03/16 14:08:23;;;;;;;;;3.75;3.25;;;;;-142.59;100.00;56100.38;4969222;28;49852;-73
2023/03/16 14:10:50;;;;;;;;;3.00;3.00;;;;;-142.59;100.00;56100.38;4969999;28;49980;-72
2023/03/16 14:13:28;;;;;;;;;1.00;1.00;;;;;-142.59;100.00;56100.38;4969764;28;49693;-73
2023/03/16 14:15:59;;;;;;;;;1.50;1.50;;;;;-142.59;100.00;56100.38;4969603;28;49759;-75
2023/03/16 14:18:40;;;;;;;;;2.00;2.00;;;;;-142.59;100.00;56100.38;4967160;28;49901;-74
2023/03/16 14:21:11;;;;;;;;;3.25;2.00;;;;;-142.59;100.00;56100.38;4951590;28;49732;-76
2023/03/16 14:23:41;;;;;;;;;2.00;2.00;;;;;-142.59;100.00;56100.38;4947192;28;49677;-77
2023/03/16 14:26:13;;;;;;;;;4.50;2.75;;;;;-142.59;100.00;56100.38;4968510;28;51349;-76
2023/03/16 14:28:40;;;;;;;;;4.00;3.00;;;;;-142.59;100.00;56100.38;4968580;28;50061;-76
2023/03/16 14:31:10;;;;;;;;;3.00;3.00;;;;;-142.59;100.00;56100.38;4951332;28;49643;-76
2023/03/16 14:33:41;;;;;;;;;2.00;2.00;;;;;-142.59;100.00;56100.38;4964750;28;50084;-77
2023/03/16 14:36:18;;;;;;;;;2.00;1.25;;;;;-142.59;100.00;56100.38;4951569;28;50841;-77
2023/03/16 14:38:47;;;;;;;;;1.75;1.75;;;;;-142.59;100.00;56100.38;4952022;28;49667;-77
2023/03/16 14:41:26;;;;;;;;;3.00;2.00;;;;;-142.59;100.00;56100.38;4970045;28;49700;-76
2023/03/16 14:43:58;;;;;;;;;1.00;1.00;;;;;-142.59;100.00;56100.38;4968014;28;49728;-74
2023/03/16 14:46:30;;;;;;;;;3.00;2.00;;;;;-142.59;100.00;56100.38;4971886;28;50981;-72
2023/03/16 14:49:25;;;;;;;;;2.25;2.25;;;;;-142.59;100.00;56100.38;4955613;28;49956;-72
2023/03/16 14:51:54;;;;;;;;;1.50;1.50;;;;;-142.59;100.00;56100.38;4958945;28;49794;-76
2023/03/16 14:54:24;;;;;;;;;3.00;2.00;;;;;-142.59;100.00;56100.38;4973261;28;49866;-74
2023/03/16 14:56:53;;;;;;;;;1.00;1.00;;;;;-142.59;100.00;56100.38;4972665;28;49874;-76
2023/03/16 14:59:19;;;;;;;;;1.25;0.50;;;;;-142.59;100.00;56100.38;4970660;28;49861;-73
2023/03/16 15:01:46;;;;;;;;;2.75;1.00;;;;;-142.59;100.00;56100.38;4968456;28;49837;-74
2023/03/16 15:04:14;;;;;;;;;1.50;1.50;;;;;-142.59;100.00;56100.38;4972373;28;49874;-75
2023/03/16 15:06:40;;;;;;;;;4.25;2.00;;;;;-142.59;100.00;56100.38;4972545;28;49930;-75
2023/03/16 15:09:06;;;;;;;;;1.25;1.25;;;;;-142.59;100.00;56100.38;4972584;28;49851;-77
2023/03/16 15:11:32;;;;;;;;;2.25;2.25;;;;;-142.59;100.00;56100.38;4972902;28;49956;-75
2023/03/16 15:14:13;;;;;;;;;2.25;1.75;;;;;-142.59;100.00;56100.38;4970756;28;49721;-78
2023/03/16 15:16:38;;;;;;;;;2.00;2.00;;;;;-142.59;100.00;56100.38;4953730;28;50939;-78
2023/03/16 15:19:04;;;;;;;;;3.25;2.00;;;;;-142.59;100.00;56100.38;4960729;28;49941;-78
2023/03/16 15:21:30;;;;;;;;;1.75;1.00;;;;;-142.59;100.00;56100.38;4972263;28;49752;-74
2023/03/16 15:23:58;;;;;;;;;1.00;1.00;;;;;-142.59;100.00;56100.38;4970187;28;49825;-71
2023/03/16 15:26:26;;;;;;;;;2.25;1.25;;;;;-142.59;100.00;56100.38;4959022;28;50393;-73
2023/03/16 15:28:53;;;;;;;;;3.00;1.25;;;;;-142.59;100.00;56100.38;4935998;28;50706;-74
2023/03/16 15:31:18;;;;;;;;;3.00;2.00;;;;;-142.59;100.00;56100.38;4972624;28;50168;-75
2023/03/16 15:33:44;;;;;;;;;1.75;1.75;;;;;-142.59;100.00;56100.38;4973674;28;49518;-72
2023/03/16 15:36:27;;;;;;;;;3.00;2.50;;;;;-142.59;100.00;56100.38;4970063;28;51172;-70
2023/03/16 15:38:54;;;;;;;;;4.75;3.00;;;;;-142.59;100.00;56100.38;4966936;28;49721;-76
2023/03/16 15:41:20;;;;;;;;;3.00;3.00;;;;;-142.59;100.00;56100.38;4971656;28;49491;-75
2023/03/16 15:43:46;;;;;;;;;3.75;3.75;;;;;-142.59;100.00;56100.38;4971091;28;49362;-75
2023/03/16 15:46:12;;;;;;;;;1.75;1.25;;;;;-142.59;100.00;56100.38;4969223;28;50202;-74
2023/03/16 15:48:38;;;;;;;;;2.00;2.00;;;;;-142.59;100.00;56100.38;4971801;28;49384;-73
2023/03/16 15:51:22;;;;;;;;;2.00;2.00;;;;;-142.59;100.00;56100.38;4968359;28;49505;-71
2023/03/16 15:53:51;;;;;;;;;4.75;3.75;;;;;-142.59;100.00;56100.38;4973923;28;49472;-72
2023/03/16 15:56:28;;;;;;;;;2.00;2.00;;;;;-142.59;100.00;56100.38;4971997;28;50566;-73
2023/03/16 15:58:55;;;;;;;;;2.00;2.00;;;;;-142.59;100.00;56100.38;4979695;28;49519;-74
2023/03/16 16:01:24;;;;;;;;;1.00;1.00;;;;;-142.59;100.00;56100.38;4986923;28;49380;-73
2023/03/16 16:03:50;;;;;;;;;4.50;2.75;;;;;-142.59;100.00;56100.38;4967653;28;49523;-77
2023/03/16 16:06:16;;;;;;;;;4.50;3.50;;;;;-142.59;100.00;56100.38;4971088;28;50344;-74
2023/03/16 16:08:42;;;;;;;;;2.00;2.00;;;;;-142.59;100.00;56100.38;4970395;28;49521;-71
2023/03/16 16:11:26;;;;;;;;;3.75;2.00;;;;;-142.59;100.00;56100.38;4981606;28;49625;-73
2023/03/16 16:13:53;;;;;;;;;3.75;2.00;;;;;-142.59;100.00;56100.38;4976145;28;49521;-74
2023/03/16 16:16:19;;;;;;;;;2.00;2.00;;;;;-142.59;100.00;56100.38;4978433;28;49982;-72
2023/03/16 16:18:47;;;;;;;;;1.25;1.00;;;;;-142.59;100.00;56100.38;4981729;28;49523;-75
2023/03/16 16:21:31;;;;;;;;;9.50;4.75;;;;;-142.59;100.00;56100.38;4970737;28;49508;-74
2023/03/16 16:23:56;;;;;;;;;3.00;2.50;;;;;-142.59;100.00;56100.38;4968980;28;49396;-75
2023/03/16 16:26:35;;;;;;;;;2.00;1.75;;;;;-142.59;100.00;56100.38;4967966;28;50503;-71
2023/03/16 16:29:11;;;;;;;;;4.00;2.00;;;;;-142.59;100.00;56100.38;4983729;28;49602;-73
2023/03/16 16:31:36;;;;;;;;;1.25;1.00;;;;;-142.59;100.00;56100.38;4979713;28;49519;-74
2023/03/16 16:34:01;;;;;;;;;5.00;2.00;;;;;-142.59;100.00;56100.38;4965317;28;49705;-73
2023/03/16 16:36:31;;;;;;;;;4.50;3.50;;;;;-142.59;100.00;56100.38;4955436;28;50974;-72
2023/03/16 16:38:56;;;;;;;;;2.50;2.50;;;;;-142.59;100.00;56100.38;4980760;28;49958;-72
2023/03/16 16:41:32;;;;;;;;;3.00;2.00;;;;;-142.59;100.00;56100.38;4964313;28;49668;-73
2023/03/16 16:44:03;;;;;;;;;2.50;2.50;;;;;-142.59;100.00;56100.38;4961457;28;50156;-77
2023/03/16 16:46:34;;;;;;;;;3.00;2.00;;;;;-142.59;100.00;56100.38;4957880;28;51021;-73
2023/03/16 16:49:05;;;;;;;;;3.25;3.25;;;;;-142.59;100.00;56100.38;4956838;28;49904;-74
2023/03/16 16:51:31;;;;;;;;;2.00;1.00;;;;;-142.59;100.00;56100.38;4972513;28;49581;-74
2023/03/16 16:53:59;;;;;;;;;2.25;2.25;;;;;-142.59;100.00;56100.38;4967059;28;49565;-73
2023/03/16 16:56:31;;;;;;;;;2.50;2.50;;;;;-142.59;100.00;56100.38;4966537;28;50944;-74
2023/03/16 16:59:00;;;;;;;;;2.00;1.25;;;;;-142.59;100.00;56100.38;4969552;28;49413;-75
2023/03/16 17:01:34;;;;;;;;;3.00;1.75;;;;;-142.59;100.00;56100.38;4971014;28;49593;-75
2023/03/16 17:04:00;;;;;;;;;2.25;1.25;;;;;-142.59;100.00;56100.38;4986883;28;49526;-77
2023/03/16 17:06:26;;;;;;;;;4.00;2.25;;;;;-142.59;100.00;56100.38;4969936;28;51727;-75
2023/03/16 17:08:53;;;;;;;;;2.25;2.25;;;;;-142.59;100.00;56100.38;4988823;28;49455;-75
2023/03/16 17:11:30;;;;;;;;;3.00;1.75;;;;;-142.59;100.00;56100.38;4988873;28;49313;-76
2023/03/16 17:14:01;;;;;;;;;3.25;2.00;;;;;-142.59;100.00;56100.38;4986014;28;49592;-76
2023/03/16 17:16:30;;;;;;;;;2.00;1.50;;;;;-142.59;100.00;56100.38;4987886;28;50501;-75
2023/03/16 17:18:55;;;;;;;;;2.75;1.50;;;;;-142.59;100.00;56100.38;4987568;28;49645;-78
2023/03/16 17:21:24;;;;;;;;;1.00;1.00;;;;;-142.59;100.00;56100.38;4988602;28;49402;-75
2023/03/16 17:23:51;;;;;;;;;2.00;2.00;;;;;-142.59;100.00;56100.38;4988377;28;49713;-73
2023/03/16 17:26:39;;;;;;;;;4.25;4.25;;;;;-142.59;100.00;56100.38;4973824;28;50346;-74
2023/03/16 17:29:32;;;;;;;;;2.00;2.00;;;;;-142.59;100.00;56100.38;4967465;28;49763;-75
2023/03/16 17:32:06;;;;;;;;;3.50;2.00;;;;;-142.59;100.00;56100.38;4949580;28;49890;-74
2023/03/16 17:34:33;;;;;;;;;6.00;2.50;;;;;-142.59;100.00;56100.38;4967822;28;49625;-70
2023/03/16 17:36:58;;;;;;;;;3.50;3.50;;;;;-142.59;100.00;56100.38;4963322;28;49698;-70
2023/03/16 17:39:27;;;;;;;;;2.00;2.00;;;;;-142.59;100.00;56100.38;4962773;28;49555;-70
2023/03/16 17:41:59;;;;;;;;;5.50;3.00;;;;;-142.59;100.00;56100.38;4982092;28;49515;-74
2023/03/16 17:44:31;;;;;;;;;2.25;2.25;;;;;-142.59;100.00;56100.38;4960373;28;49559;-70